Dover Air Force Base
KDOV : now visible

Airfield :











YOU CAN JOIN US ON...

 
LOGIN :

Register | Disclaimer

   EN    FR    IT 

 









Legend :    VFR   Marginal VFR   IFR   Intensive IFR   Very Intensive IFR
Visi :
Ceiling :
>= 8 km
>= 3000ft
5 to 8 km
1000 to 3000 ft
1500m to 5 km
500 to 1000 ft
800 to 1500m
200 to 500 ft
< 800m
< 200 ft
Symbols :   Thunderstorms  Fog  Heavy snow  Heavy precipitations  Wind > 20 kt






- Airport Elevation : 24 ft


KDOV - Dover Air Force Base

CURRENT METAR :
  • 231656Z AUTO 33005KT 10SM CLR 22/07 A3022 RMK AO2 SLP237 T02150066 $

EXPIRED METARs :
  • 231556Z AUTO 34009KT 10SM CLR 21/08 A3021 RMK AO2 SLP234 T02130075 $
  • 231456Z AUTO 35010KT 10SM CLR 20/08 A3021 RMK AO2 SLP234 T02040077 52017 $

TAF TAF KDOV
Valid from the 23 at 16:00 until the 24 at 22:00 UTC


231600Z 2316/2422 35009KT 9999 FEW250 QNH3018INS
BECMG 2414/2415 07012KT 9999 SKC QNH3031INS TX25/2320Z TN15/2409Z
KZDC FIR / North America



MET'MAP, your aeronautical weather chart ! - Copyright ORBIFLY December 2007 - Disclaimer

ORBIFLY MET'MAP TEAM :

Programming & Development : Alexandra Zaïnal
Concept & original design : Baudouin d'Aumeries
Assistance for programming : Marc-Olivier Méhu
Technical & hardware support : Manuel Goepfert

Contact : metmap@orbifly.com




SOURCES & CREDITS :

   NOAA       Earth
Advisory